Data for 01/18/2007

Time Sea-Level Adjusted Pressure Absolute Pressure Temperature Relative Humidity Dew Point   
(mb) (inHg) (mb) (inHg) (C) (F) (%) (C) (F)
00:05 1023 30.21 852 25.16 -8.4 16.9 64 -14.1 6.6
00:10 1023 30.21 852 25.16 -8.5 16.7 64 -14.2 6.4
00:15 1023 30.21 853 25.19 -8.6 16.6 63 -14.3 6.2
00:20 1023 30.21 853 25.19 -8.6 16.5 63 -14.4 6
00:25 1023 30.21 853 25.19 -8.8 16.3 63 -14.5 5.9
00:30 1023 30.21 853 25.19 -8.9 16 63 -14.8 5.4
00:35 1023 30.21 853 25.19 -8.8 16.1 63 -14.7 5.5
00:40 1023 30.21 853 25.19 -8.8 16.1 62 -14.8 5.3
00:45 1023 30.21 853 25.19 -9.1 15.6 64 -14.7 5.6
00:50 1023 30.21 853 25.19 -9 15.8 62 -14.9 5.1
00:55 1023 30.21 853 25.19 -8.8 16.2 62 -14.9 5.2
01:00 1023 30.21 853 25.19 -8.7 16.4 61 -15 5.1
01:05 1023 30.21 853 25.19 -8.7 16.4 61 -14.9 5.3
01:10 1023 30.21 853 25.19 -8.8 16.2 61 -15 5
01:15 1023 30.21 853 25.19 -8.9 15.9 61 -15.2 4.7
01:20 1023 30.21 853 25.19 -8.8 16.2 59 -15.4 4.3
01:25 1023 30.21 853 25.19 -8.7 16.4 59 -15.4 4.4
01:30 1023 30.21 853 25.19 -8.9 16.1 58 -15.6 3.9
01:35 1023 30.21 852 25.16 -9 15.8 58 -15.9 3.4
01:40 1023 30.21 852 25.16 -8.9 15.9 57 -16.1 3.1
01:45 1023 30.21 853 25.19 -8.9 15.9 57 -16.1 3.1
01:50 1023 30.21 853 25.19 -8.9 16 57 -15.9 3.4
01:55 1024 30.24 853 25.19 -9.1 15.6 58 -15.9 3.4
02:00 1024 30.24 853 25.19 -9 15.8 58 -15.8 3.5
02:05 1024 30.24 853 25.19 -9.2 15.5 59 -15.8 3.5
02:10 1024 30.24 853 25.19 -8.9 16 57 -16 3.3
02:15 1024 30.24 853 25.19 -8.2 17.2 55 -15.7 3.7
02:20 1024 30.24 853 25.19 -8.3 17.1 56 -15.6 4
02:25 1024 30.24 853 25.19 -8.5 16.7 56 -15.8 3.6
02:30 1024 30.24 853 25.19 -8.8 16.2 57 -15.9 3.4
02:35 1024 30.24 853 25.19 -8.9 16 56 -16.1 3
02:40 1024 30.24 853 25.19 -8.9 16 56 -16.1 3.1
02:45 1024 30.24 853 25.19 -8.9 15.9 57 -15.9 3.4
02:50 1024 30.24 853 25.19 -9.3 15.2 59 -16 3.1
02:55 1024 30.24 853 25.19 -9.6 14.7 59 -16.1 2.9
03:00 1024 30.24 853 25.19 -9.7 14.5 59 -16.4 2.5
03:05 1024 30.24 853 25.19 -9.8 14.3 58 -16.6 2.2
03:10 1024 30.24 853 25.19 -9.9 14.1 57 -16.9 1.5
03:15 1024 30.24 853 25.19 -9.9 14.1 57 -17 1.4
03:20 1024 30.24 853 25.19 -10.2 13.7 56 -17.3 0.8
03:25 1024 30.24 853 25.19 -10 13.9 55 -17.4 0.7
03:30 1024 30.24 853 25.19 -9.9 14.2 55 -17.4 0.7
03:35 1024 30.24 853 25.19 -9.8 14.3 54 -17.4 0.6
03:40 1024 30.24 853 25.19 -9.8 14.4 54 -17.5 0.5
03:45 1024 30.24 853 25.19 -9.9 14.2 54 -17.6 0.3
03:50 1024 30.24 853 25.19 -10.1 13.9 54 -17.8 -0
03:55 1024 30.24 853 25.19 -10.3 13.4 54 -17.9 -0.2
04:00 1024 30.24 853 25.19 -10.5 13.1 55 -17.9 -0.3
04:05 1024 30.24 853 25.19 -10.6 12.8 56 -17.9 -0.2
04:10 1024 30.24 853 25.19 -10.6 12.8 56 -17.9 -0.3
04:15 1024 30.24 853 25.19 -10.7 12.8 56 -17.9 -0.3
04:20 1024 30.24 853 25.19 -10.7 12.8 55 -18 -0.4
04:25 1024 30.24 853 25.19 -10.5 13.1 55 -18 -0.4
04:30 1024 30.24 853 25.19 -10.5 13.2 55 -17.8 -0
04:35 1024 30.24 853 25.19 -10.5 13.2 55 -17.7 0.1
04:40 1024 30.24 853 25.19 -10.4 13.3 56 -17.7 0.2
04:45 1024 30.24 853 25.19 -10.4 13.2 57 -17.4 0.7
04:50 1024 30.24 853 25.19 -10.8 12.7 60 -17.1 1.2
04:55 1024 30.24 853 25.19 -11 12.1 61 -17.2 1
05:00 1024 30.24 853 25.19 -10.8 12.5 59 -17.3 0.8
05:05 1024 30.24 853 25.19 -10.5 13.2 58 -17.3 0.9
05:10 1024 30.24 853 25.19 -10.6 12.8 60 -17.1 1.3
05:15 1024 30.24 853 25.19 -11 12.2 61 -17.2 1.1
05:20 1024 30.24 853 25.19 -11.1 12.1 61 -17.3 0.9
05:25 1024 30.24 853 25.19 -11.1 12.1 60 -17.4 0.8
05:30 1024 30.24 853 25.19 -11 12.3 60 -17.4 0.7
05:35 1024 30.24 853 25.19 -10.8 12.6 59 -17.3 0.8
05:40 1024 30.24 853 25.19 -10.7 12.7 59 -17.2 1
05:45 1024 30.24 853 25.19 -10.8 12.6 59 -17.4 0.7
05:50 1024 30.24 853 25.19 -10.8 12.6 60 -17.2 1
05:55 1024 30.24 853 25.19 -10.8 12.5 61 -17 1.3
06:00 1024 30.24 853 25.19 -11 12.1 61 -17.1 1.2
06:05 1024 30.24 854 25.22 -11.3 11.6 62 -17.2 1
06:10 1024 30.24 854 25.22 -11.5 11.2 63 -17.3 0.9
06:15 1024 30.24 854 25.22 -11.5 11.3 63 -17.3 0.9
06:20 1024 30.24 854 25.22 -11.6 11.2 63 -17.3 0.9
06:25 1024 30.24 854 25.22 -11.8 10.8 64 -17.3 0.8
06:30 1024 30.24 854 25.22 -11.8 10.8 64 -17.4 0.7
06:35 1024 30.24 854 25.22 -11.9 10.6 64 -17.4 0.6
06:40 1024 30.24 854 25.22 -11.9 10.6 64 -17.4 0.6
06:45 1024 30.24 854 25.22 -11.7 11 62 -17.6 0.2
06:50 1024 30.24 854 25.22 -11.6 11.2 61 -17.6 0.3
06:55 1024 30.24 854 25.22 -11.8 10.8 61 -17.9 -0.3
07:00 1024 30.24 854 25.22 -12.5 9.4 62 -18.4 -1.1
07:05 1024 30.24 854 25.22 -13.2 8.3 64 -18.7 -1.6
07:10 1024 30.24 854 25.22 -13.3 8.1 64 -18.7 -1.6
07:15 1024 30.24 854 25.22 -13.6 7.6 65 -18.8 -1.9
07:20 1024 30.24 854 25.22 -13.8 7.2 68 -18.6 -1.4
07:25 1024 30.24 854 25.22 -13.4 7.8 67 -18.4 -1
07:30 1024 30.24 854 25.22 -13.2 8.3 67 -18.1 -0.5
07:35 1024 30.24 854 25.22 -12.9 8.8 66 -17.9 -0.2
07:40 1024 30.24 854 25.22 -12.7 9.1 66 -17.8 -0.1
07:45 1024 30.24 854 25.22 -12.7 9.1 66 -17.8 -0.1
07:50 1024 30.24 854 25.22 -12.6 9.3 66 -17.7 0.1
07:55 1025 30.27 854 25.22 -12.8 8.9 67 -17.7 0.1
08:00 1025 30.27 854 25.22 -12.9 8.7 68 -17.7 0.1
08:05 1025 30.27 854 25.22 -12.9 8.7 68 -17.6 0.2
08:10 1025 30.27 854 25.22 -13 8.7 68 -17.7 0.1
08:15 1025 30.27 854 25.22 -13.3 8.1 67 -18.2 -0.8
08:20 1025 30.27 854 25.22 -13.4 7.8 69 -18 -0.3
08:25 1025 30.27 854 25.22 -12.9 8.7 67 -17.9 -0.1
08:30 1025 30.27 854 25.22 -12.2 10 62 -18.2 -0.8
08:35 1025 30.27 854 25.22 -11.6 11.2 60 -17.8 -0
08:40 1025 30.27 854 25.22 -10.8 12.5 57 -17.8 -0.1
08:45 1025 30.27 854 25.22 -10.1 13.8 55 -17.6 0.3
08:50 1025 30.27 854 25.22 -9.9 14.1 54 -17.6 0.3
08:55 1025 30.27 854 25.22 -9.7 14.6 54 -17.4 0.7
09:00 1025 30.27 854 25.22 -9.2 15.4 52 -17.4 0.7
09:05 1025 30.27 854 25.22 -9.2 15.4 52 -17.4 0.6
09:10 1025 30.27 854 25.22 -9.2 15.5 51 -17.4 0.6
09:15 1025 30.27 854 25.22 -9.6 14.8 53 -17.6 0.4
09:20 1025 30.27 854 25.22 -9.8 14.3 53 -17.7 0.2
09:25 1025 30.27 854 25.22 -10.7 12.8 56 -17.9 -0.2
09:30 1025 30.27 855 25.25 -11.2 11.9 57 -18.2 -0.7
09:35 1025 30.27 855 25.25 -11.2 11.9 57 -18.2 -0.7
09:40 1025 30.27 855 25.25 -10.8 12.5 56 -18.1 -0.5
09:45 1025 30.27 855 25.25 -10.5 13 54 -18.1 -0.5
09:50 1025 30.27 855 25.25 -10.1 13.9 53 -18 -0.3
09:55 1025 30.27 855 25.25 -9.6 14.6 51 -18 -0.4
10:00 1026 30.3 855 25.25 -10.6 13 53 -18.4 -1.1
10:05 1025 30.27 855 25.25 -10.9 12.5 54 -18.5 -1.3
10:10 1026 30.3 855 25.25 -10.1 13.7 52 -18.2 -0.7
10:15 1026 30.3 855 25.25 -9.3 15.2 50 -17.9 -0.2
10:20 1026 30.3 855 25.25 -9.6 14.6 52 -17.8 -0.1
10:25 1026 30.3 855 25.25 -9.7 14.6 51 -18 -0.4
10:30 1026 30.3 855 25.25 -9.3 15.3 50 -17.8 -0
10:35 1026 30.3 855 25.25 -9.3 15.2 50 -18.1 -0.5
10:40 1026 30.3 855 25.25 -9.4 15.1 51 -17.7 0.1
10:45 1026 30.3 855 25.25 -9.3 15.2 50 -18 -0.3
10:50 1026 30.3 855 25.25 -9.1 15.6 49 -17.9 -0.3
10:55 1026 30.3 855 25.25 -8.9 15.9 48 -18.2 -0.7
11:00 1026 30.3 855 25.25 -8.8 16.2 48 -18 -0.3
11:05 1026 30.3 855 25.25 -8.7 16.4 48 -17.8 -0
11:10 1026 30.3 855 25.25 -8.4 16.9 48 -17.6 0.3
11:15 1026 30.3 855 25.25 -7.4 18.7 44 -17.6 0.3
11:20 1026 30.3 855 25.25 -6.6 20.2 46 -16.5 2.3
11:25 1026 30.3 855 25.25 -6.8 19.9 46 -16.5 2.2
11:30 1025 30.27 855 25.25 -6.4 20.4 42 -17.4 0.7
11:35 1025 30.27 855 25.25 -5.8 21.6 41 -17 1.4
11:40 1025 30.27 855 25.25 -5.3 22.5 41 -16.6 2.1
11:45 1025 30.27 855 25.25 -5.5 22.2 42 -16.3 2.6
11:50 1025 30.27 855 25.25 -6 21.2 43 -16.6 2.1
11:55 1025 30.27 855 25.25 -7.1 19.2 44 -17.5 0.6
12:00 1025 30.27 854 25.22 -6.6 20.1 44 -16.9 1.6
12:05 1025 30.27 854 25.22 -5.9 21.4 42 -16.9 1.6
12:10 1025 30.27 854 25.22 -5.9 21.5 41 -17.2 1
12:15 1025 30.27 854 25.22 -5.8 21.5 40 -17.5 0.6
12:20 1025 30.27 854 25.22 -5.9 21.5 40 -17.3 0.8
12:25 1025 30.27 854 25.22 -5.7 21.8 40 -17.3 0.8
12:30 1025 30.27 854 25.22 -5.3 22.5 38 -17.4 0.6
12:35 1025 30.27 854 25.22 -5 22.9 38 -17.4 0.7
12:40 1025 30.27 854 25.22 -4.9 23.2 38 -17.2 1
12:45 1025 30.27 854 25.22 -4.9 23.2 36 -17.6 0.2
12:50 1025 30.27 854 25.22 -5.3 22.5 38 -17.7 0.2
12:55 1024 30.24 854 25.22 -5.4 22.2 39 -17.4 0.6
13:00 1024 30.24 854 25.22 -5.5 22.1 39 -17.4 0.7
13:05 1024 30.24 853 25.19 -4.9 23.3 37 -17.5 0.4
13:10 1024 30.24 853 25.19 -4.5 23.9 37 -17 1.5
13:15 1024 30.24 853 25.19 -4.7 23.6 37 -17.2 1
13:20 1024 30.24 853 25.19 -4.4 24.1 36 -17.4 0.6
13:25 1024 30.24 853 25.19 -3.5 25.7 35 -17 1.4
13:30 1024 30.24 853 25.19 -3.8 25.2 35 -17.1 1.3
13:35 1024 30.24 853 25.19 -4 24.8 36 -17 1.4
13:40 1024 30.24 853 25.19 -4.2 24.5 36 -17.1 1.2
13:45 1024 30.24 853 25.19 -3.3 26.1 35 -16.7 2
13:50 1024 30.24 853 25.19 -2.6 27.4 34 -16.5 2.3
13:55 1024 30.24 853 25.19 -2.4 27.6 33 -16.5 2.2
14:00 1024 30.24 853 25.19 -2.7 27.1 32 -17.1 1.2
14:05 1024 30.24 853 25.19 -2.4 27.7 35 -16 3.2
14:10 1024 30.24 853 25.19 -2.5 27.6 34 -16.5 2.4
14:15 1024 30.24 853 25.19 -4 24.7 37 -16.8 1.8
14:20 1024 30.24 853 25.19 -5.1 22.9 39 -17.1 1.2
14:25 1024 30.24 853 25.19 -5.2 22.7 36 -18 -0.4
14:30 1024 30.24 853 25.19 -5.1 22.8 38 -17.4 0.6
14:35 1024 30.24 853 25.19 -4.8 23.4 39 -16.6 2.1
14:40 1024 30.24 853 25.19 -4.3 24.2 37 -16.8 1.7
14:45 1024 30.24 853 25.19 -4.6 23.7 39 -16.7 2
14:50 1024 30.24 853 25.19 -4.4 24.1 38 -16.8 1.8
14:55 1024 30.24 853 25.19 -4.2 24.5 36 -17.1 1.2
15:00 1023 30.21 853 25.19 -4.2 24.4 39 -16.3 2.7
15:05 1023 30.21 853 25.19 -4.6 23.8 39 -16.5 2.3
15:10 1024 30.24 853 25.19 -5 23 40 -16.7 2
15:15 1024 30.24 853 25.19 -5.3 22.5 39 -17.2 1.1
15:20 1023 30.21 853 25.19 -5.6 21.9 40 -17.3 0.8
15:25 1023 30.21 853 25.19 -5.7 21.8 42 -16.7 2
15:30 1023 30.21 853 25.19 -5.4 22.3 44 -15.8 3.6
15:35 1023 30.21 853 25.19 -5.4 22.3 42 -16.5 2.3
15:40 1023 30.21 853 25.19 -5.5 22.1 43 -16.1 3
15:45 1023 30.21 853 25.19 -5.5 22.2 43 -16.1 3.1
15:50 1023 30.21 853 25.19 -5.3 22.4 46 -15.3 4.5
15:55 1023 30.21 853 25.19 -5.3 22.5 41 -16.5 2.3
16:00 1024 30.24 853 25.19 -5.3 22.5 44 -15.6 3.9
16:05 1024 30.24 853 25.19 -5 23.1 47 -14.5 5.8
16:10 1024 30.24 853 25.19 -4.4 24 43 -15.2 4.6
16:15 1024 30.24 853 25.19 -3.6 25.5 42 -14.9 5.2
16:20 1024 30.24 853 25.19 -3.1 26.3 39 -15.2 4.7
16:25 1024 30.24 853 25.19 -3 26.6 37 -15.6 3.9
16:30 1024 30.24 853 25.19 -2.9 26.7 38 -15.5 4.1
16:35 1024 30.24 853 25.19 -3.1 26.4 40 -15 5
16:40 1024 30.24 853 25.19 -3 26.5 39 -15.1 4.8
16:45 1024 30.24 853 25.19 -3.1 26.3 42 -14.4 6
16:50 1024 30.24 853 25.19 -3.3 26 43 -14.2 6.4
16:55 1024 30.24 853 25.19 -3.4 25.9 42 -14.6 5.8
17:00 1024 30.24 853 25.19 -3.5 25.7 42 -14.7 5.5
17:05 1024 30.24 853 25.19 -3.7 25.3 42 -14.7 5.5
17:10 1024 30.24 853 25.19 -3.9 25 40 -15.5 4.1
17:15 1024 30.24 853 25.19 -4.1 24.7 43 -14.9 5.2
17:20 1024 30.24 853 25.19 -4.1 24.6 40 -15.9 3.4
17:25 1024 30.24 853 25.19 -4.1 24.7 41 -15.5 4.1
17:30 1024 30.24 853 25.19 -4.2 24.4 40 -16.1 3.1
17:35 1024 30.24 853 25.19 -4.2 24.5 42 -15.4 4.3
17:40 1024 30.24 853 25.19 -4.1 24.6 43 -14.9 5.2
17:45 1024 30.24 853 25.19 -4.1 24.7 43 -15 5.1
17:50 1024 30.24 854 25.22 -3.9 25 41 -15.2 4.6
17:55 1024 30.24 854 25.22 -3.7 25.3 42 -15 4.9
18:00 1024 30.24 853 25.19 -3.6 25.5 41 -15.1 4.9
18:05 1024 30.24 853 25.19 -3.5 25.8 38 -15.7 3.7
18:10 1024 30.24 853 25.19 -3.7 25.4 39 -15.6 3.9
18:15 1024 30.24 853 25.19 -4 24.8 40 -15.6 3.9
18:20 1024 30.24 853 25.19 -4.2 24.4 44 -14.8 5.4
18:25 1024 30.24 853 25.19 -4.7 23.6 48 -14.2 6.4
18:30 1024 30.24 853 25.19 -4.4 24.2 42 -15.4 4.2
18:35 1024 30.24 853 25.19 -3.9 24.9 41 -15.4 4.3
18:40 1024 30.24 853 25.19 -4 24.8 41 -15.4 4.2
18:45 1024 30.24 853 25.19 -3.8 25.1 38 -16.2 2.8
18:50 1024 30.24 853 25.19 -3.7 25.4 38 -16 3.3
18:55 1024 30.24 853 25.19 -3.8 25.2 40 -15.4 4.4
19:00 1024 30.24 853 25.19 -4.2 24.4 47 -14 6.8
19:05 1024 30.24 854 25.22 -4.2 24.5 34 -17.8 -0
19:10 1024 30.24 854 25.22 -3.7 25.3 44 -14.4 6
19:15 1025 30.27 854 25.22 -3.9 24.9 44 -14.6 5.7
19:20 1025 30.27 854 25.22 -4 24.8 50 -13 8.6
19:25 1024 30.24 854 25.22 -3.9 24.9 43 -14.8 5.4
19:30 1024 30.24 854 25.22 -3.5 25.7 43 -14.4 6
19:35 1024 30.24 854 25.22 -3.6 25.5 49 -12.7 9.1
19:40 1025 30.27 854 25.22 -4.3 24.3 53 -12.6 9.4
19:45 1025 30.27 854 25.22 -5.3 22.5 47 -14.9 5.1
19:50 1025 30.27 854 25.22 -4.7 23.5 48 -14.2 6.5
19:55 1025 30.27 854 25.22 -4.2 24.4 41 -15.6 4
20:00 1025 30.27 854 25.22 -3.9 25 43 -14.8 5.3
20:05 1025 30.27 854 25.22 -4.5 23.9 54 -12.5 9.5
20:10 1025 30.27 854 25.22 -5 23.1 53 -13.2 8.2
20:15 1025 30.27 854 25.22 -4.7 23.6 56 -12.3 9.9
20:20 1024 30.24 854 25.22 -5 23.1 58 -12 10.4
20:25 1025 30.27 854 25.22 -5 23.1 58 -11.9 10.6
20:30 1025 30.27 854 25.22 -5.2 22.7 59 -11.9 10.5
20:35 1025 30.27 854 25.22 -5.2 22.7 59 -12.1 10.3
20:40 1025 30.27 854 25.22 -4.9 23.2 58 -11.8 10.7
20:45 1025 30.27 854 25.22 -4.9 23.2 57 -12.2 10.1
20:50 1025 30.27 854 25.22 -4.8 23.4 56 -12.4 9.7
20:55 1024 30.24 854 25.22 -4.3 24.2 52 -12.7 9.1
21:00 1024 30.24 854 25.22 -4.5 23.8 55 -12.2 10.1
21:05 1024 30.24 853 25.19 -4.5 23.8 60 -11.2 11.8
21:10 1024 30.24 854 25.22 -4.6 23.7 59 -11.4 11.5
21:15 1025 30.27 854 25.22 -4.8 23.4 53 -12.9 8.8
21:20 1025 30.27 854 25.22 -4.4 24.2 52 -12.8 9
21:25 1025 30.27 854 25.22 -4.5 24 59 -11.2 11.8
21:30 1025 30.27 854 25.22 -5.3 22.4 65 -11 12.2
21:35 1025 30.27 854 25.22 -5.7 21.8 62 -11.8 10.7
21:40 1025 30.27 854 25.22 -5.4 22.4 59 -12.1 10.2
21:45 1024 30.24 854 25.22 -5.3 22.5 62 -11.4 11.5
21:50 1024 30.24 854 25.22 -5.8 21.6 68 -10.8 12.6
21:55 1025 30.27 854 25.22 -6.1 21 67 -11.2 11.8
22:00 1025 30.27 854 25.22 -5.8 21.6 66 -11.2 11.8
22:05 1025 30.27 854 25.22 -5.2 22.6 62 -11.5 11.4
22:10 1024 30.24 854 25.22 -5 23 58 -12 10.5
22:15 1024 30.24 854 25.22 -4.7 23.5 58 -11.7 10.9
22:20 1025 30.27 854 25.22 -4.4 24 59 -11.4 11.6
22:25 1025 30.27 854 25.22 -4.6 23.8 62 -10.9 12.4
22:30 1025 30.27 854 25.22 -4.7 23.5 63 -10.8 12.6
22:35 1024 30.24 854 25.22 -4.6 23.8 65 -10.1 13.8
22:40 1024 30.24 854 25.22 -4.7 23.5 66 -10.2 13.6
22:45 1024 30.24 854 25.22 -4.6 23.7 59 -11.4 11.6
22:50 1024 30.24 854 25.22 -4.3 24.2 62 -10.5 13.1
22:55 1024 30.24 853 25.19 -4.4 24 64 -10.3 13.4
23:00 1024 30.24 853 25.19 -4.4 24 64 -10.2 13.7
23:05 1024 30.24 853 25.19 -4.4 24 65 -10 14
23:10 1024 30.24 854 25.22 -4.4 24 67 -9.7 14.5
23:15 1024 30.24 854 25.22 -4.8 23.3 68 -9.8 14.4
23:20 1024 30.24 853 25.19 -4.9 23.1 67 -10.2 13.7
23:25 1024 30.24 854 25.22 -4.8 23.3 61 -11.2 11.8
23:30 1024 30.24 854 25.22 -4.6 23.8 61 -11 12.2
23:35 1025 30.27 854 25.22 -4.6 23.8 63 -10.5 13.1
23:40 1025 30.27 854 25.22 -4.6 23.7 63 -10.7 12.7
23:45 1025 30.27 854 25.22 -4.6 23.8 61 -11 12.2
23:50 1025 30.27 854 25.22 -4.5 23.9 60 -11.1 12
23:55 1025 30.27 854 25.22 -4.5 23.9 62 -10.6 12.9
24:00 1025 30.27 854 25.22 -4.7 23.5 66 -10.2 13.6